Time;durP1;ratioP1;P1;durP2;ratioP2;P2;SDS_P1;SDS_P2;PMS_P1;PMS_P2;Temp;Humidity;BMP_temperature;BMP_pressure;BME280_temperature;BME280_humidity;BME280_pressure;Samples;Min_cycle;Max_cycle;Signal;HPM_P1;HPM_P2
2023/12/19 00:00:28;;;;;;;3.92;1.90;;;8.30;94.70;;;;;;5107458;28;20043;-74
2023/12/19 00:02:54;;;;;;;0.40;0.40;;;8.30;94.70;;;;;;5108791;28;20062;-74
2023/12/19 00:05:19;;;;;;;3.40;0.90;;;8.30;94.80;;;;;;5108241;28;20047;-74
2023/12/19 00:07:46;;;;;;;0.10;0.10;;;8.20;94.60;;;;;;5090315;28;20485;-74
2023/12/19 00:10:11;;;;;;;0.28;0.28;;;8.20;94.70;;;;;;5097721;28;20101;-75
2023/12/19 00:12:37;;;;;;;19.60;1.35;;;8.10;94.70;;;;;;5088097;28;20115;-75
2023/12/19 00:15:04;;;;;;;0.15;0.15;;;8.20;94.80;;;;;;5088005;28;20066;-74
2023/12/19 00:17:30;;;;;;;0.10;0.10;;;8.10;94.70;;;;;;5087825;28;20076;-74
2023/12/19 00:19:56;;;;;;;0.40;0.40;;;8.10;94.70;;;;;;5088033;28;20083;-74
2023/12/19 00:22:25;;;;;;;0.00;0.00;;;8.10;94.70;;;;;;5070165;28;20048;-74
2023/12/19 00:24:53;;;;;;;0.10;0.10;;;8.10;94.70;;;;;;5087509;28;20498;-74
2023/12/19 00:27:19;;;;;;;0.00;0.00;;;8.10;94.60;;;;;;5087845;28;20422;-74
2023/12/19 00:29:45;;;;;;;0.40;0.40;;;8.10;94.60;;;;;;5087783;28;20044;-74
2023/12/19 00:32:10;;;;;;;1.02;0.93;;;8.10;94.70;;;;;;5103906;28;20048;-74
2023/12/19 00:34:36;;;;;;;0.57;0.57;;;8.10;94.70;;;;;;5087464;28;20055;-74
2023/12/19 00:37:02;;;;;;;0.00;0.00;;;8.00;94.70;;;;;;5088092;28;20048;-74
2023/12/19 00:39:28;;;;;;;0.20;0.20;;;8.10;94.70;;;;;;5087940;28;20051;-74
2023/12/19 00:41:54;;;;;;;0.10;0.10;;;8.10;94.80;;;;;;5069589;28;20044;-74
2023/12/19 00:44:19;;;;;;;0.05;0.05;;;8.00;94.70;;;;;;5091237;28;20040;-73
2023/12/19 00:46:45;;;;;;;0.10;0.10;;;8.00;94.70;;;;;;5090531;28;20044;-74
2023/12/19 00:49:11;;;;;;;0.32;0.32;;;8.10;94.70;;;;;;5073896;28;20040;-74
2023/12/19 00:51:37;;;;;;;0.60;0.60;;;8.00;94.80;;;;;;5091673;28;20513;-75
2023/12/19 00:54:03;;;;;;;1.05;1.00;;;8.00;94.70;;;;;;5085212;28;20040;-75
2023/12/19 00:56:29;;;;;;;0.32;0.32;;;8.00;94.80;;;;;;5071106;28;20912;-74
2023/12/19 00:58:54;;;;;;;1.17;1.08;;;8.00;94.70;;;;;;5108601;28;20050;-75
2023/12/19 01:01:24;;;;;;;0.17;0.17;;;8.10;94.80;;;;;;5112105;28;20162;-74
2023/12/19 01:03:50;;;;;;;0.10;0.10;;;8.00;94.70;;;;;;5111880;28;20084;-74
2023/12/19 01:06:15;;;;;;;0.10;0.10;;;8.10;94.70;;;;;;5111812;28;20506;-74
2023/12/19 01:08:41;;;;;;;0.15;0.15;;;8.00;94.70;;;;;;5093723;28;20055;-74
2023/12/19 01:11:09;;;;;;;0.00;0.00;;;8.00;94.70;;;;;;5073761;28;20048;-74
2023/12/19 01:13:38;;;;;;;0.20;0.20;;;7.90;94.70;;;;;;5091388;28;20051;-75
2023/12/19 01:16:04;;;;;;;0.75;0.75;;;7.90;94.70;;;;;;5091129;28;20082;-74
2023/12/19 01:18:30;;;;;;;0.00;0.00;;;7.90;94.70;;;;;;5109857;28;20047;-74
2023/12/19 01:20:55;;;;;;;0.10;0.10;;;7.90;94.80;;;;;;5111240;28;20039;-74
2023/12/19 01:23:23;;;;;;;0.17;0.17;;;7.90;94.80;;;;;;5111684;28;20070;-74
2023/12/19 01:25:48;;;;;;;0.00;0.00;;;7.80;94.70;;;;;;5110721;28;20115;-74
2023/12/19 01:28:14;;;;;;;0.10;0.10;;;7.90;94.80;;;;;;5110930;28;20177;-74
2023/12/19 01:30:40;;;;;;;0.73;0.73;;;7.80;94.70;;;;;;5111072;28;20055;-74
2023/12/19 01:33:08;;;;;;;0.00;0.00;;;7.90;94.80;;;;;;5110690;28;20069;-74
2023/12/19 01:35:33;;;;;;;0.00;0.00;;;7.80;94.80;;;;;;5110581;28;20052;-74
2023/12/19 01:37:59;;;;;;;0.55;0.32;;;7.80;94.80;;;;;;5111027;28;20043;-74
2023/12/19 01:40:28;;;;;;;0.10;0.10;;;7.80;94.70;;;;;;5096231;28;20043;-74
2023/12/19 01:42:55;;;;;;;0.00;0.00;;;7.80;94.80;;;;;;5090601;28;20078;-74
2023/12/19 01:45:22;;;;;;;5.05;1.10;;;7.90;94.90;;;;;;5090714;28;20055;-74
2023/12/19 01:47:47;;;;;;;0.10;0.10;;;7.80;94.80;;;;;;5089799;28;20051;-74
2023/12/19 01:50:16;;;;;;;0.00;0.00;;;7.90;94.80;;;;;;5090719;28;20762;-74
2023/12/19 01:52:45;;;;;;;0.52;0.52;;;7.90;94.70;;;;;;5093182;28;20098;-74
2023/12/19 01:55:13;;;;;;;0.00;0.00;;;7.80;94.70;;;;;;5069378;28;20044;-73
2023/12/19 01:57:39;;;;;;;0.10;0.10;;;7.80;94.70;;;;;;5085817;28;20047;-74
2023/12/19 02:00:05;;;;;;;0.00;0.00;;;7.90;94.70;;;;;;5110329;28;20569;-74
2023/12/19 02:02:31;;;;;;;0.77;0.77;;;7.90;94.60;;;;;;5110412;28;20122;-74
2023/12/19 02:04:58;;;;;;;0.10;0.10;;;7.80;94.70;;;;;;5110399;28;20047;-73
2023/12/19 02:07:24;;;;;;;0.05;0.05;;;7.80;94.60;;;;;;5110742;28;20157;-74
2023/12/19 02:09:52;;;;;;;0.05;0.05;;;7.80;94.70;;;;;;5082772;28;20133;-73
2023/12/19 02:12:18;;;;;;;2.53;1.00;;;7.80;94.70;;;;;;5089594;28;20047;-73
2023/12/19 02:14:44;;;;;;;0.10;0.10;;;7.70;94.70;;;;;;5089883;28;20729;-74
2023/12/19 02:17:11;;;;;;;0.40;0.40;;;7.80;94.80;;;;;;5089851;28;20123;-74
2023/12/19 02:19:49;;;;;;;0.10;0.10;;;7.80;94.80;;;;;;5089655;28;20051;-74
2023/12/19 02:22:15;;;;;;;0.65;0.65;;;7.70;94.60;;;;;;5090244;28;20040;-74
2023/12/19 02:24:42;;;;;;;0.10;0.10;;;7.70;94.70;;;;;;5089078;28;20040;-74
2023/12/19 02:27:08;;;;;;;0.15;0.15;;;7.80;94.70;;;;;;5088895;28;20044;-73
2023/12/19 02:29:34;;;;;;;0.05;0.05;;;7.70;94.70;;;;;;5088990;28;20040;-73
2023/12/19 02:32:01;;;;;;;0.10;0.10;;;7.60;94.70;;;;;;5071709;28;20044;-74
2023/12/19 02:34:26;;;;;;;0.00;0.00;;;7.70;94.70;;;;;;5089762;28;20406;-74
2023/12/19 02:36:52;;;;;;;0.38;0.38;;;7.70;94.70;;;;;;5089510;28;20048;-74
2023/12/19 02:39:18;;;;;;;1.92;1.83;;;7.70;94.60;;;;;;5089235;28;20048;-74
2023/12/19 02:41:44;;;;;;;0.00;0.00;;;7.70;94.70;;;;;;5089384;28;20048;-74
2023/12/19 02:44:10;;;;;;;0.30;0.30;;;7.60;94.60;;;;;;5089417;28;20071;-74
2023/12/19 02:46:36;;;;;;;0.20;0.20;;;7.70;94.80;;;;;;5089192;28;20087;-74
2023/12/19 02:49:02;;;;;;;1.08;1.08;;;7.60;94.70;;;;;;5105463;28;20119;-74
2023/12/19 02:51:29;;;;;;;0.55;0.55;;;7.60;94.80;;;;;;5078060;28;20040;-73
2023/12/19 02:53:56;;;;;;;0.00;0.00;;;7.70;94.80;;;;;;5051212;28;20526;-74
2023/12/19 02:56:22;;;;;;;0.10;0.10;;;7.60;94.80;;;;;;5069232;28;20041;-74
2023/12/19 02:58:47;;;;;;;0.22;0.22;;;7.60;94.80;;;;;;5089392;28;20093;-74
2023/12/19 03:01:13;;;;;;;0.10;0.10;;;7.60;94.80;;;;;;5089211;28;20079;-74
2023/12/19 03:03:43;;;;;;;0.10;0.10;;;7.60;94.90;;;;;;5089042;28;20054;-74
2023/12/19 03:06:09;;;;;;;0.45;0.45;;;7.70;94.80;;;;;;5088084;28;20461;-74
2023/12/19 03:08:35;;;;;;;0.03;0.03;;;7.60;94.80;;;;;;5088875;28;20040;-74
2023/12/19 03:11:01;;;;;;;0.15;0.15;;;7.70;94.90;;;;;;5088478;28;20052;-74
2023/12/19 03:13:27;;;;;;;1.63;0.35;;;7.70;94.90;;;;;;5088977;28;20054;-74
2023/12/19 03:15:54;;;;;;;0.10;0.10;;;7.70;94.80;;;;;;5088623;28;20044;-74
2023/12/19 03:18:24;;;;;;;0.57;0.57;;;7.70;94.80;;;;;;5088714;28;20036;-74
2023/12/19 03:20:53;;;;;;;0.00;0.00;;;7.70;94.80;;;;;;5088606;28;20588;-74
2023/12/19 03:23:22;;;;;;;0.10;0.10;;;7.70;94.80;;;;;;5087805;28;20105;-73
2023/12/19 03:25:48;;;;;;;0.20;0.20;;;7.70;94.90;;;;;;5087728;28;20105;-73
2023/12/19 03:28:14;;;;;;;0.15;0.13;;;7.70;94.80;;;;;;5087219;28;20063;-73
2023/12/19 03:30:40;;;;;;;0.30;0.30;;;7.70;94.80;;;;;;5089482;28;20400;-74
2023/12/19 03:33:05;;;;;;;0.03;0.03;;;7.70;94.90;;;;;;5089184;28;20044;-74
2023/12/19 03:35:31;;;;;;;0.10;0.10;;;7.70;94.80;;;;;;5088668;28;20058;-74
2023/12/19 03:37:57;;;;;;;0.00;0.00;;;7.60;94.90;;;;;;5088764;28;20054;-74
2023/12/19 03:40:22;;;;;;;0.63;0.63;;;7.60;94.90;;;;;;5088412;28;20131;-74
2023/12/19 03:42:48;;;;;;;0.10;0.10;;;7.70;94.90;;;;;;5088781;28;20048;-74
2023/12/19 03:45:14;;;;;;;1.45;1.35;;;7.60;94.90;;;;;;5088539;28;20126;-74
2023/12/19 03:47:40;;;;;;;0.47;0.47;;;7.60;94.90;;;;;;5088400;28;20044;-74
2023/12/19 03:50:07;;;;;;;0.00;0.00;;;7.70;95.00;;;;;;5073014;28;20407;-74
2023/12/19 03:52:33;;;;;;;0.45;0.45;;;7.60;95.00;;;;;;5068338;28;20087;-74
2023/12/19 03:54:58;;;;;;;0.10;0.10;;;7.60;94.90;;;;;;5068240;28;20119;-74
2023/12/19 03:57:25;;;;;;;0.85;0.25;;;7.60;95.00;;;;;;5079892;28;20501;-74
2023/12/19 03:59:51;;;;;;;0.00;0.00;;;7.60;95.10;;;;;;5108824;28;20035;-74
2023/12/19 04:02:16;;;;;;;0.10;0.10;;;7.70;95.10;;;;;;5107486;28;20039;-74
2023/12/19 04:04:42;;;;;;;0.40;0.40;;;7.70;95.10;;;;;;5107478;28;20100;-74
2023/12/19 04:07:08;;;;;;;0.10;0.10;;;7.70;95.00;;;;;;5085152;28;20040;-74
2023/12/19 04:09:33;;;;;;;0.00;0.00;;;7.70;95.10;;;;;;5086775;28;20097;-74
2023/12/19 04:12:02;;;;;;;0.10;0.10;;;7.70;95.10;;;;;;5086762;28;20479;-74
2023/12/19 04:14:29;;;;;;;0.45;0.45;;;7.60;95.00;;;;;;5086744;28;20087;-74
2023/12/19 04:16:55;;;;;;;0.00;0.00;;;7.70;95.10;;;;;;5069086;28;20074;-74
2023/12/19 04:19:21;;;;;;;0.10;0.10;;;7.70;95.00;;;;;;5086794;28;20079;-74
2023/12/19 04:21:47;;;;;;;0.00;0.00;;;7.80;95.00;;;;;;5086766;28;20051;-74
2023/12/19 04:24:13;;;;;;;0.15;0.15;;;7.80;95.00;;;;;;5087709;28;20052;-73
2023/12/19 04:26:39;;;;;;;0.17;0.17;;;7.80;95.00;;;;;;5068242;28;20384;-74
2023/12/19 04:29:05;;;;;;;0.00;0.00;;;7.80;95.00;;;;;;5086585;28;20044;-74
2023/12/19 04:31:30;;;;;;;0.00;0.00;;;7.80;95.00;;;;;;5086886;28;20036;-73
2023/12/19 04:33:56;;;;;;;0.00;0.00;;;7.70;95.00;;;;;;5086443;28;20418;-73
2023/12/19 04:36:22;;;;;;;0.20;0.20;;;7.80;95.10;;;;;;5086819;28;20044;-73
2023/12/19 04:38:47;;;;;;;0.00;0.00;;;7.80;95.00;;;;;;5086386;28;20043;-73
2023/12/19 04:41:13;;;;;;;0.10;0.10;;;7.80;95.10;;;;;;5086936;28;20048;-73
2023/12/19 04:43:38;;;;;;;0.00;0.00;;;7.80;95.00;;;;;;5086342;28;20032;-73
2023/12/19 04:46:08;;;;;;;0.00;0.00;;;7.80;95.10;;;;;;5068543;28;20724;-73
2023/12/19 04:48:34;;;;;;;0.60;0.55;;;7.70;95.10;;;;;;5068566;28;20062;-74
2023/12/19 04:51:00;;;;;;;0.00;0.00;;;7.90;95.10;;;;;;5066450;28;20056;-74
2023/12/19 04:53:27;;;;;;;0.10;0.10;;;7.80;95.10;;;;;;5066287;28;20135;-74
2023/12/19 04:55:53;;;;;;;0.00;0.00;;;7.80;95.10;;;;;;5066327;28;20060;-74
2023/12/19 04:58:19;;;;;;;0.00;0.00;;;7.90;95.10;;;;;;5093545;28;20047;-74
2023/12/19 05:00:44;;;;;;;0.10;0.10;;;7.90;95.10;;;;;;5106966;28;20051;-74
2023/12/19 05:03:10;;;;;;;0.00;0.00;;;7.90;95.10;;;;;;5103187;28;20040;-74
2023/12/19 05:05:36;;;;;;;0.20;0.20;;;7.90;95.10;;;;;;5086688;28;20094;-73
2023/12/19 05:08:01;;;;;;;0.10;0.10;;;7.90;95.10;;;;;;5086513;28;20509;-73
2023/12/19 05:10:27;;;;;;;0.10;0.10;;;8.00;95.20;;;;;;5086817;28;20598;-74
2023/12/19 05:12:53;;;;;;;0.10;0.10;;;7.90;95.10;;;;;;5086493;28;20490;-74
2023/12/19 05:15:18;;;;;;;0.30;0.30;;;7.90;95.10;;;;;;5086503;28;20478;-74
2023/12/19 05:17:44;;;;;;;0.00;0.00;;;7.90;95.10;;;;;;5086557;28;20044;-74
2023/12/19 05:20:10;;;;;;;0.10;0.10;;;7.90;95.10;;;;;;5085662;28;20032;-74
2023/12/19 05:22:36;;;;;;;0.10;0.10;;;8.00;95.10;;;;;;5074897;28;20047;-74
2023/12/19 05:25:02;;;;;;;0.00;0.00;;;7.90;95.10;;;;;;5085682;28;20036;-73
2023/12/19 05:27:27;;;;;;;0.25;0.15;;;7.90;95.20;;;;;;5086037;28;20052;-74
2023/12/19 05:29:53;;;;;;;0.10;0.10;;;8.10;95.10;;;;;;5087498;28;20044;-74
2023/12/19 05:32:18;;;;;;;0.32;0.32;;;8.00;95.10;;;;;;5089575;28;20088;-74
2023/12/19 05:34:44;;;;;;;0.75;0.75;;;8.00;95.20;;;;;;5089773;28;20036;-74
2023/12/19 05:37:09;;;;;;;0.00;0.00;;;8.00;95.30;;;;;;5089809;28;20044;-73
2023/12/19 05:39:35;;;;;;;0.00;0.00;;;8.10;95.20;;;;;;5074438;28;20407;-74
2023/12/19 05:42:01;;;;;;;0.03;0.03;;;8.10;95.20;;;;;;5069100;28;20041;-74
2023/12/19 05:44:27;;;;;;;0.10;0.10;;;8.10;95.10;;;;;;5069373;28;20044;-75
2023/12/19 05:46:53;;;;;;;0.28;0.28;;;8.00;95.10;;;;;;5085190;28;20052;-74
2023/12/19 05:49:19;;;;;;;0.00;0.00;;;8.10;95.10;;;;;;5089698;28;20039;-75
2023/12/19 05:51:44;;;;;;;0.00;0.00;;;8.00;95.10;;;;;;5071631;28;20486;-74
2023/12/19 05:54:10;;;;;;;0.10;0.10;;;8.10;95.20;;;;;;5089551;28;20046;-75
2023/12/19 05:56:36;;;;;;;0.57;0.57;;;8.10;95.20;;;;;;5070551;28;20495;-74
2023/12/19 05:59:01;;;;;;;0.00;0.00;;;8.10;95.20;;;;;;5070120;28;20032;-75
2023/12/19 06:01:28;;;;;;;0.05;0.05;;;8.10;95.20;;;;;;5088291;28;20076;-74
2023/12/19 06:03:54;;;;;;;0.28;0.28;;;8.10;95.20;;;;;;5087990;28;20036;-74
2023/12/19 06:06:20;;;;;;;0.00;0.00;;;8.10;95.10;;;;;;5088035;28;20043;-74
2023/12/19 06:08:46;;;;;;;0.57;0.52;;;8.10;95.20;;;;;;5088228;28;20059;-75
2023/12/19 06:11:12;;;;;;;0.47;0.47;;;8.10;95.10;;;;;;5087950;28;20031;-74
2023/12/19 06:13:38;;;;;;;0.13;0.13;;;8.10;95.20;;;;;;5088101;28;20032;-74
2023/12/19 06:16:05;;;;;;;0.00;0.00;;;8.10;95.20;;;;;;5087939;28;20123;-74
2023/12/19 06:18:31;;;;;;;0.10;0.10;;;8.10;95.20;;;;;;5076887;28;20560;-74
2023/12/19 06:20:59;;;;;;;0.13;0.13;;;8.10;95.30;;;;;;5074487;28;20051;-74
2023/12/19 06:23:26;;;;;;;0.28;0.28;;;8.20;95.30;;;;;;5087679;28;20054;-74
2023/12/19 06:25:52;;;;;;;0.68;0.68;;;8.20;95.30;;;;;;5086105;28;20059;-74
2023/12/19 06:28:17;;;;;;;0.00;0.00;;;8.20;95.20;;;;;;5069568;28;20040;-74
2023/12/19 06:30:43;;;;;;;0.00;0.00;;;8.10;95.20;;;;;;5087472;28;20043;-74
2023/12/19 06:33:09;;;;;;;0.00;0.00;;;8.10;95.20;;;;;;5087067;28;20040;-74
2023/12/19 06:35:40;;;;;;;0.10;0.10;;;8.20;95.20;;;;;;5087405;28;20040;-73
2023/12/19 06:38:06;;;;;;;0.20;0.20;;;8.10;95.20;;;;;;5086324;28;20558;-74
2023/12/19 06:40:32;;;;;;;0.05;0.05;;;8.10;95.30;;;;;;5087654;28;20074;-73
2023/12/19 06:42:57;;;;;;;0.00;0.00;;;8.10;95.30;;;;;;5067400;28;20051;-74
2023/12/19 06:45:23;;;;;;;4.13;0.75;;;8.10;95.20;;;;;;5081385;28;20056;-74
2023/12/19 06:47:48;;;;;;;0.00;0.00;;;8.20;95.30;;;;;;5089785;28;20063;-72
2023/12/19 06:50:16;;;;;;;1.35;0.57;;;8.20;95.20;;;;;;5087589;28;20044;-74
2023/12/19 06:52:41;;;;;;;0.00;0.00;;;8.20;95.20;;;;;;5072806;28;20052;-71
2023/12/19 06:55:11;;;;;;;0.00;0.00;;;8.10;95.30;;;;;;5070320;28;20044;-71
2023/12/19 06:57:37;;;;;;;0.00;0.00;;;8.10;95.20;;;;;;5069123;28;20060;-68
2023/12/19 07:00:06;;;;;;;0.00;0.00;;;8.10;95.30;;;;;;5087442;28;20066;-69
2023/12/19 07:02:31;;;;;;;0.00;0.00;;;8.10;95.30;;;;;;5087618;28;20062;-69
2023/12/19 07:04:57;;;;;;;0.00;0.00;;;8.10;95.30;;;;;;5086158;28;20040;-68
2023/12/19 07:07:24;;;;;;;0.00;0.00;;;8.20;95.30;;;;;;5086747;28;20504;-69
2023/12/19 07:09:50;;;;;;;0.00;0.00;;;8.20;95.40;;;;;;5084816;28;20058;-69
2023/12/19 07:12:15;;;;;;;0.00;0.00;;;8.20;95.20;;;;;;5086122;28;20048;-69
2023/12/19 07:14:41;;;;;;;0.03;0.03;;;8.20;95.30;;;;;;5086142;28;20067;-69
2023/12/19 07:17:07;;;;;;;1.48;0.47;;;8.20;95.20;;;;;;5085902;28;20040;-67
2023/12/19 07:19:33;;;;;;;0.00;0.00;;;8.20;95.30;;;;;;5083880;28;20070;-69
2023/12/19 07:21:59;;;;;;;0.00;0.00;;;8.40;95.30;;;;;;5084218;28;20776;-69
2023/12/19 07:24:25;;;;;;;0.00;0.00;;;8.40;95.30;;;;;;5084297;28;20051;-69
2023/12/19 07:26:51;;;;;;;0.00;0.00;;;8.40;95.30;;;;;;5077090;28;20060;-69
2023/12/19 07:29:19;;;;;;;0.55;0.55;;;8.40;95.30;;;;;;5065664;28;20041;-69
2023/12/19 07:31:44;;;;;;;0.03;0.03;;;8.40;95.50;;;;;;5065950;28;20037;-69
2023/12/19 07:34:10;;;;;;;0.00;0.00;;;8.40;95.40;;;;;;5071120;28;20138;-69
2023/12/19 07:36:36;;;;;;;0.00;0.00;;;8.40;95.40;;;;;;5079074;28;20056;-69
2023/12/19 07:39:03;;;;;;;0.10;0.10;;;8.50;95.40;;;;;;5083103;28;20089;-68
2023/12/19 07:41:31;;;;;;;0.00;0.00;;;8.60;95.50;;;;;;5084856;28;20430;-68
2023/12/19 07:43:57;;;;;;;0.00;0.00;;;8.60;95.40;;;;;;5084619;28;20055;-69
2023/12/19 07:46:23;;;;;;;1.55;0.57;;;8.50;95.40;;;;;;5084328;28;20064;-68
2023/12/19 07:48:49;;;;;;;0.00;0.00;;;8.60;95.40;;;;;;5085018;28;20043;-68
2023/12/19 07:51:16;;;;;;;0.00;0.00;;;8.60;95.40;;;;;;5083740;28;20047;-68
2023/12/19 07:53:42;;;;;;;0.00;0.00;;;8.60;95.40;;;;;;5081373;28;20036;-68
2023/12/19 07:56:08;;;;;;;0.00;0.00;;;8.60;95.40;;;;;;5083166;28;20422;-68
2023/12/19 07:58:33;;;;;;;0.00;0.00;;;8.60;95.40;;;;;;5082974;28;20032;-68
2023/12/19 08:00:59;;;;;;;0.00;0.00;;;8.60;95.40;;;;;;5081534;28;20075;-68
2023/12/19 08:03:29;;;;;;;0.00;0.00;;;8.60;95.40;;;;;;5084684;28;20036;-69
2023/12/19 08:05:56;;;;;;;0.00;0.00;;;8.60;95.50;;;;;;5084891;28;20448;-69
2023/12/19 08:08:25;;;;;;;0.50;0.50;;;8.70;95.50;;;;;;5084327;28;20705;-69
2023/12/19 08:10:51;;;;;;;0.00;0.00;;;8.70;95.60;;;;;;5083588;28;20524;-69
2023/12/19 08:13:19;;;;;;;0.20;0.20;;;8.70;95.60;;;;;;5082967;28;20422;-69
2023/12/19 08:15:47;;;;;;;0.10;0.10;;;8.80;95.60;;;;;;5083382;28;20077;-69
2023/12/19 08:18:13;;;;;;;0.55;0.55;;;8.90;95.60;;;;;;5082850;28;20044;-69
2023/12/19 08:20:38;;;;;;;0.00;0.00;;;8.90;95.50;;;;;;5081768;28;20063;-69
2023/12/19 08:23:04;;;;;;;0.00;0.00;;;8.90;95.50;;;;;;5082838;28;20441;-69
2023/12/19 08:25:30;;;;;;;0.20;0.20;;;9.00;95.50;;;;;;5083003;28;20964;-69
2023/12/19 08:27:55;;;;;;;0.10;0.10;;;9.00;95.50;;;;;;5077288;28;20459;-69
2023/12/19 08:30:24;;;;;;;0.00;0.00;;;9.00;95.50;;;;;;5083638;28;20040;-69
2023/12/19 08:32:50;;;;;;;0.00;0.00;;;9.00;95.50;;;;;;5083352;28;20048;-69
2023/12/19 08:35:17;;;;;;;0.00;0.00;;;9.00;95.50;;;;;;5064762;28;20044;-69
2023/12/19 08:37:43;;;;;;;0.00;0.00;;;9.00;95.50;;;;;;5084682;28;20044;-69
2023/12/19 08:40:09;;;;;;;0.00;0.00;;;9.00;95.40;;;;;;5083026;28;20479;-69
2023/12/19 08:42:35;;;;;;;0.00;0.00;;;9.10;95.50;;;;;;5080142;28;20106;-69
2023/12/19 08:45:00;;;;;;;0.00;0.00;;;9.10;95.50;;;;;;5065604;28;20075;-69
2023/12/19 08:47:26;;;;;;;0.17;0.17;;;9.00;95.40;;;;;;5084628;28;20044;-69
2023/12/19 08:49:57;;;;;;;0.10;0.10;;;9.10;95.40;;;;;;5081796;28;20028;-69
2023/12/19 08:52:23;;;;;;;0.00;0.00;;;9.10;95.40;;;;;;5080310;28;20059;-69
2023/12/19 08:54:51;;;;;;;0.20;0.20;;;9.10;95.40;;;;;;5064347;28;20150;-69
2023/12/19 08:57:16;;;;;;;0.00;0.00;;;9.10;95.40;;;;;;5083848;28;20040;-69
2023/12/19 08:59:42;;;;;;;0.10;0.10;;;9.10;95.50;;;;;;5083524;28;20051;-69
2023/12/19 09:02:08;;;;;;;0.00;0.00;;;9.10;95.40;;;;;;5084813;28;20044;-69
2023/12/19 09:04:35;;;;;;;0.00;0.00;;;9.10;95.50;;;;;;5079908;28;20052;-69
2023/12/19 09:07:01;;;;;;;0.00;0.00;;;9.10;95.50;;;;;;5086120;28;20455;-69
2023/12/19 09:09:27;;;;;;;0.20;0.20;;;9.10;95.50;;;;;;5086138;28;20092;-69
2023/12/19 09:11:54;;;;;;;0.00;0.00;;;9.10;95.40;;;;;;5086695;28;20054;-69
2023/12/19 09:14:20;;;;;;;0.00;0.00;;;9.20;95.50;;;;;;5069051;28;20048;-69
2023/12/19 09:16:45;;;;;;;0.00;0.00;;;9.20;95.40;;;;;;5087641;28;20641;-69
2023/12/19 09:19:14;;;;;;;0.00;0.00;;;9.20;95.40;;;;;;5088171;28;20085;-69
2023/12/19 09:21:40;;;;;;;0.17;0.17;;;9.20;95.40;;;;;;5083085;28;20101;-69
2023/12/19 09:24:06;;;;;;;0.10;0.10;;;9.20;95.50;;;;;;5069987;28;20044;-69
2023/12/19 09:26:33;;;;;;;0.08;0.08;;;9.20;95.40;;;;;;5087884;28;20036;-69
2023/12/19 09:28:59;;;;;;;0.03;0.03;;;9.30;95.50;;;;;;5068217;28;20048;-70
2023/12/19 09:31:24;;;;;;;0.00;0.00;;;9.30;95.50;;;;;;5069256;28;20068;-69
2023/12/19 09:33:50;;;;;;;0.00;0.00;;;9.30;95.40;;;;;;5052703;28;20210;-69
2023/12/19 09:36:24;;;;;;;0.00;0.00;;;9.30;95.40;;;;;;5086108;28;20028;-69
2023/12/19 09:38:50;;;;;;;0.10;0.10;;;9.30;95.40;;;;;;5083288;28;20066;-69
2023/12/19 09:41:17;;;;;;;0.00;0.00;;;9.40;95.50;;;;;;5081668;28;20054;-69
2023/12/19 09:43:43;;;;;;;0.00;0.00;;;9.40;95.50;;;;;;5086699;28;20044;-69
2023/12/19 09:46:10;;;;;;;0.00;0.00;;;9.40;95.50;;;;;;5084938;28;20036;-69
2023/12/19 09:48:37;;;;;;;0.10;0.10;;;9.40;95.50;;;;;;5087206;28;20028;-69
2023/12/19 09:51:04;;;;;;;0.00;0.00;;;9.40;95.50;;;;;;5082130;28;20063;-69
2023/12/19 09:53:34;;;;;;;0.00;0.00;;;9.40;95.50;;;;;;5089619;28;20101;-69
2023/12/19 09:56:01;;;;;;;0.00;0.00;;;9.50;95.50;;;;;;5089300;28;20060;-69
2023/12/19 09:58:30;;;;;;;0.00;0.00;;;9.50;95.50;;;;;;5086383;28;20150;-69
2023/12/19 10:00:59;;;;;;;0.00;0.00;;;9.50;95.40;;;;;;5085653;28;20051;-69
2023/12/19 10:03:28;;;;;;;0.00;0.00;;;9.50;95.50;;;;;;5086549;28;20569;-69
2023/12/19 10:05:56;;;;;;;0.00;0.00;;;9.60;95.50;;;;;;5086878;28;20045;-69
2023/12/19 10:08:21;;;;;;;0.00;0.00;;;9.60;95.50;;;;;;5087888;28;20043;-69
2023/12/19 10:10:53;;;;;;;0.00;0.00;;;9.60;95.40;;;;;;5065730;28;20040;-69
2023/12/19 10:13:47;;;;;;;0.00;0.00;;;9.60;95.50;;;;;;5079078;28;20059;-69
2023/12/19 10:16:17;;;;;;;0.00;0.00;;;9.60;95.40;;;;;;5080009;28;20071;-70
2023/12/19 10:18:52;;;;;;;0.00;0.00;;;9.60;95.40;;;;;;5100483;28;20136;-70
2023/12/19 10:21:20;;;;;;;0.10;0.10;;;9.60;95.40;;;;;;5088338;28;20068;-69
2023/12/19 10:23:46;;;;;;;0.08;0.08;;;9.60;95.40;;;;;;5064951;28;20058;-69
2023/12/19 10:26:12;;;;;;;0.00;0.00;;;9.60;95.50;;;;;;5081571;28;20083;-71
2023/12/19 10:28:39;;;;;;;0.03;0.03;;;9.60;95.50;;;;;;5083629;28;20146;-71
2023/12/19 10:31:15;;;;;;;0.10;0.10;;;9.60;95.50;;;;;;5082725;28;20051;-71
2023/12/19 10:33:42;;;;;;;0.03;0.03;;;9.70;95.50;;;;;;5084895;28;20036;-71
2023/12/19 10:36:20;;;;;;;0.00;0.00;;;9.60;95.40;;;;;;5086708;28;20044;-71
2023/12/19 10:38:46;;;;;;;0.00;0.00;;;9.60;95.50;;;;;;5084595;28;20044;-71
2023/12/19 10:41:38;;;;;;;0.00;0.00;;;9.70;95.50;;;;;;5083972;28;20085;-71
2023/12/19 10:44:04;;;;;;;0.00;0.00;;;9.60;95.50;;;;;;5083255;28;20756;-71
2023/12/19 10:46:33;;;;;;;0.00;0.00;;;9.60;95.50;;;;;;5067655;28;20062;-71
2023/12/19 10:49:03;;;;;;;0.15;0.15;;;9.60;95.40;;;;;;5087099;28;20032;-71
2023/12/19 10:51:39;;;;;;;0.00;0.00;;;9.60;95.40;;;;;;5086908;28;20524;-71
2023/12/19 10:54:11;;;;;;;0.00;0.00;;;9.60;95.40;;;;;;5084856;28;20040;-72
2023/12/19 10:57:15;;;;;;;0.00;0.00;;;9.70;95.50;;;;;;5068433;28;20047;-71
2023/12/19 10:59:50;;;;;;;0.00;0.00;;;9.70;95.40;;;;;;5084640;28;20055;-70
2023/12/19 11:02:46;;;;;;;0.10;0.10;;;9.70;95.40;;;;;;5086679;28;20043;-68
2023/12/19 11:05:31;;;;;;;0.00;0.00;;;9.80;95.50;;;;;;5085868;28;20060;-68
2023/12/19 11:08:02;;;;;;;0.00;0.00;;;9.70;95.40;;;;;;5082038;28;20044;-69
2023/12/19 11:10:32;;;;;;;0.00;0.00;;;9.80;95.40;;;;;;5088453;28;20048;-68
2023/12/19 11:12:58;;;;;;;0.00;0.00;;;9.80;95.40;;;;;;5086059;28;20060;-69
2023/12/19 11:15:25;;;;;;;0.00;0.00;;;9.80;95.40;;;;;;5084055;28;20040;-69
2023/12/19 11:18:34;;;;;;;0.22;0.22;;;9.70;95.30;;;;;;5068561;28;20036;-69
2023/12/19 11:21:17;;;;;;;0.00;0.00;;;9.70;95.30;;;;;;5076906;28;20110;-70
2023/12/19 11:24:01;;;;;;;0.00;0.00;;;9.70;95.30;;;;;;5086817;28;20039;-70
2023/12/19 11:27:00;;;;;;;0.00;0.00;;;9.70;95.40;;;;;;5083645;28;20402;-70
2023/12/19 11:29:45;;;;;;;0.00;0.00;;;9.70;95.30;;;;;;5086279;28;20377;-70
2023/12/19 11:32:29;;;;;;;0.00;0.00;;;9.70;95.40;;;;;;5086069;28;20040;-70
2023/12/19 11:35:11;;;;;;;0.00;0.00;;;9.70;95.30;;;;;;5085307;28;20575;-70
2023/12/19 11:37:38;;;;;;;0.00;0.00;;;9.70;95.40;;;;;;5087706;28;20056;-71
2023/12/19 11:40:05;;;;;;;0.00;0.00;;;9.70;95.30;;;;;;5067995;28;20048;-69
2023/12/19 11:42:37;;;;;;;0.00;0.00;;;9.60;95.30;;;;;;5085916;28;20072;-68
2023/12/19 11:45:18;;;;;;;0.10;0.10;;;9.70;95.30;;;;;;5085639;28;20096;-69
2023/12/19 11:47:44;;;;;;;0.40;0.40;;;9.70;95.30;;;;;;5086059;28;20645;-70
2023/12/19 11:50:10;;;;;;;0.10;0.10;;;9.70;95.30;;;;;;5085419;28;20458;-69
2023/12/19 11:52:36;;;;;;;0.00;0.00;;;9.60;95.30;;;;;;5083559;28;20067;-70
2023/12/19 11:55:04;;;;;;;0.00;0.00;;;9.60;95.30;;;;;;5081437;28;20049;-70
2023/12/19 11:57:30;;;;;;;0.00;0.00;;;9.70;95.40;;;;;;5083323;28;20040;-70
2023/12/19 11:59:56;;;;;;;0.00;0.00;;;9.70;95.40;;;;;;5079360;28;20044;-70
2023/12/19 12:02:36;;;;;;;0.00;0.00;;;9.80;95.40;;;;;;5086375;28;20066;-70
2023/12/19 12:05:13;;;;;;;0.00;0.00;;;9.80;95.50;;;;;;5083583;28;20032;-70
2023/12/19 12:07:49;;;;;;;0.00;0.00;;;9.80;95.40;;;;;;5082419;28;20071;-70
2023/12/19 12:10:21;;;;;;;0.00;0.00;;;9.90;95.40;;;;;;5083061;28;20851;-70
2023/12/19 12:12:47;;;;;;;;;;;9.90;95.40;;;;;;5085097;28;20498;-70
2023/12/19 12:15:20;;;;;;;0.10;0.10;;;9.90;95.40;;;;;;5085705;28;19919;-70
2023/12/19 12:17:50;;;;;;;0.00;0.00;;;9.90;95.50;;;;;;5084953;28;20480;-70
2023/12/19 12:20:25;;;;;;;0.00;0.00;;;10.00;95.50;;;;;;5083150;28;20142;-70
2023/12/19 12:22:54;;;;;;;0.00;0.00;;;10.00;95.40;;;;;;5084365;28;20052;-71
2023/12/19 12:25:22;;;;;;;0.00;0.00;;;10.00;95.40;;;;;;5085537;28;20498;-74
2023/12/19 12:27:55;;;;;;;0.00;0.00;;;9.90;95.40;;;;;;5050656;28;20071;-70
2023/12/19 12:30:25;;;;;;;0.00;0.00;;;9.90;95.30;;;;;;5083291;28;20048;-69
2023/12/19 12:32:51;;;;;;;0.00;0.00;;;9.90;95.20;;;;;;5084688;28;20081;-69
2023/12/19 12:35:33;;;;;;;0.00;0.00;;;9.90;95.30;;;;;;5082276;28;20044;-69
2023/12/19 12:38:03;;;;;;;0.00;0.00;;;9.80;95.30;;;;;;5081641;28;20123;-69
2023/12/19 12:40:29;;;;;;;0.00;0.00;;;9.80;95.30;;;;;;5087483;28;20089;-69
2023/12/19 12:43:33;;;;;;;0.00;0.00;;;9.80;95.30;;;;;;5084577;28;20040;-68
2023/12/19 12:46:13;;;;;;;0.00;0.00;;;9.80;95.20;;;;;;5089186;28;20044;-71
2023/12/19 12:48:47;;;;;;;0.00;0.00;;;9.80;95.10;;;;;;5083602;28;20048;-70
2023/12/19 12:51:16;;;;;;;0.00;0.00;;;9.90;95.50;;;;;;5087533;28;20692;-69
2023/12/19 12:53:42;;;;;;;0.00;0.00;;;10.00;95.20;;;;;;5083405;28;20102;-70
2023/12/19 12:56:16;;;;;;;0.00;0.00;;;9.80;95.00;;;;;;5089227;28;20036;-69
2023/12/19 12:58:43;;;;;;;0.00;0.00;;;9.90;95.10;;;;;;5089233;28;20119;-69
2023/12/19 13:01:09;;;;;;;0.00;0.00;;;9.80;95.00;;;;;;5088862;28;20642;-70